Time;durP1;ratioP1;P1;durP2;ratioP2;P2;SDS_P1;SDS_P2;PMS_P1;PMS_P2;Temp;Humidity;BMP_temperature;BMP_pressure;BME280_temperature;BME280_humidity;BME280_pressure;Samples;Min_cycle;Max_cycle;Signal;HPM_P1;HPM_P2
2022/11/25 00:01:27;;;;;;;10.52;4.18;;;;;;;;;;5073003;28;20043;-77
2022/11/25 00:03:55;;;;;;;14.23;4.30;;;;;;;;;;5066079;28;20480;-77
2022/11/25 00:06:25;;;;;;;10.85;3.55;;;;;;;;;;5078491;28;20041;-77
2022/11/25 00:08:56;;;;;;;13.82;4.30;;;;;;;;;;5070612;28;20401;-77
2022/11/25 00:11:25;;;;;;;12.27;4.40;;;;;;;;;;5067520;28;20044;-77
2022/11/25 00:13:52;;;;;;;13.27;4.55;;;;;;;;;;5056188;28;20131;-77
2022/11/25 00:16:19;;;;;;;14.75;4.47;;;;;;;;;;5068104;28;20051;-77
2022/11/25 00:18:46;;;;;;;11.73;4.43;;;;;;;;;;5048576;28;20048;-77
2022/11/25 00:21:13;;;;;;;14.93;4.85;;;;;;;;;;5053006;28;20060;-77
2022/11/25 00:23:39;;;;;;;13.40;4.80;;;;;;;;;;5081774;28;20538;-77
2022/11/25 00:26:12;;;;;;;14.80;4.03;;;;;;;;;;5055861;28;20136;-77
2022/11/25 00:28:39;;;;;;;14.50;4.40;;;;;;;;;;5087071;28;20055;-76
2022/11/25 00:31:12;;;;;;;13.30;4.18;;;;;;;;;;5049920;28;20040;-77
2022/11/25 00:33:38;;;;;;;12.35;4.13;;;;;;;;;;5087130;28;20095;-77
2022/11/25 00:36:05;;;;;;;10.02;4.13;;;;;;;;;;5056804;28;20832;-77
2022/11/25 00:38:31;;;;;;;10.65;4.47;;;;;;;;;;5064732;28;20041;-77
2022/11/25 00:46:27;;;;;;;12.70;4.65;;;;;;;;;;5052480;28;20044;-77
2022/11/25 00:48:53;;;;;;;15.82;4.43;;;;;;;;;;5069636;28;20044;-77
2022/11/25 00:51:19;;;;;;;16.17;5.35;;;;;;;;;;5056226;28;20102;-77
2022/11/25 00:53:45;;;;;;;14.63;4.88;;;;;;;;;;5054473;28;20478;-77
2022/11/25 00:56:14;;;;;;;12.52;4.32;;;;;;;;;;5082635;28;20055;-77
2022/11/25 00:58:40;;;;;;;10.57;4.50;;;;;;;;;;5072748;28;20131;-77
2022/11/25 01:01:06;;;;;;;10.40;3.85;;;;;;;;;;5084364;28;20098;-77
2022/11/25 01:03:33;;;;;;;9.60;4.38;;;;;;;;;;5055329;28;20384;-77
2022/11/25 01:06:09;;;;;;;12.50;4.45;;;;;;;;;;5053931;28;20052;-77
2022/11/25 01:08:36;;;;;;;16.00;4.90;;;;;;;;;;5086336;28;20646;-78
2022/11/25 01:11:04;;;;;;;14.88;4.95;;;;;;;;;;5054399;28;20052;-77
2022/11/25 01:13:30;;;;;;;15.35;4.70;;;;;;;;;;5070340;28;20165;-78
2022/11/25 01:15:56;;;;;;;12.48;4.25;;;;;;;;;;5087041;28;20051;-78
2022/11/25 01:18:23;;;;;;;12.13;4.65;;;;;;;;;;5069417;28;20523;-78
2022/11/25 01:20:49;;;;;;;11.13;4.40;;;;;;;;;;5086738;28;20068;-78
2022/11/25 01:23:15;;;;;;;13.75;4.55;;;;;;;;;;5063126;28;20099;-78
2022/11/25 01:25:41;;;;;;;14.02;4.55;;;;;;;;;;5071606;28;20048;-78
2022/11/25 01:28:07;;;;;;;19.20;5.00;;;;;;;;;;5080092;28;20048;-78
2022/11/25 01:30:33;;;;;;;13.68;5.22;;;;;;;;;;5082029;28;20048;-78
2022/11/25 01:32:59;;;;;;;19.50;5.25;;;;;;;;;;5053294;28;20098;-78
2022/11/25 01:35:25;;;;;;;15.63;4.95;;;;;;;;;;5053709;28;20089;-78
2022/11/25 01:37:51;;;;;;;13.38;4.75;;;;;;;;;;5072473;28;20049;-78
2022/11/25 01:40:17;;;;;;;13.88;5.15;;;;;;;;;;5051193;28;20083;-79
2022/11/25 01:42:43;;;;;;;12.88;4.53;;;;;;;;;;5072168;28;20052;-78
2022/11/25 01:45:36;;;;;;;15.32;4.82;;;;;;;;;;5085048;28;20506;-78
2022/11/25 01:48:06;;;;;;;13.45;4.53;;;;;;;;;;5061563;28;20056;-78
2022/11/25 01:50:33;;;;;;;16.02;5.00;;;;;;;;;;5061470;28;20079;-78
2022/11/25 01:53:00;;;;;;;10.63;4.50;;;;;;;;;;5072443;28;20045;-77
2022/11/25 01:55:30;;;;;;;15.90;5.30;;;;;;;;;;5059952;28;20090;-78
2022/11/25 01:57:59;;;;;;;14.93;5.28;;;;;;;;;;5087488;28;20119;-77
2022/11/25 02:00:25;;;;;;;15.95;4.75;;;;;;;;;;5071851;28;20079;-78
2022/11/25 02:02:52;;;;;;;14.38;5.00;;;;;;;;;;5077661;28;20041;-78
2022/11/25 02:05:20;;;;;;;11.60;4.78;;;;;;;;;;5085234;28;20036;-78
2022/11/25 02:07:48;;;;;;;12.27;4.50;;;;;;;;;;5041638;28;20051;-78
2022/11/25 02:10:15;;;;;;;17.23;5.10;;;;;;;;;;5070842;28;20087;-78
2022/11/25 02:12:43;;;;;;;19.00;5.00;;;;;;;;;;5066776;28;20048;-78
2022/11/25 02:15:09;;;;;;;10.32;4.45;;;;;;;;;;5047126;28;20036;-78
2022/11/25 02:17:36;;;;;;;12.95;5.25;;;;;;;;;;5084431;28;20037;-78
2022/11/25 02:20:04;;;;;;;16.13;4.78;;;;;;;;;;5053677;28;20128;-78
2022/11/25 02:22:35;;;;;;;14.82;5.03;;;;;;;;;;5076991;28;20311;-78
2022/11/25 02:25:08;;;;;;;14.32;4.88;;;;;;;;;;5069939;28;20399;-78
2022/11/25 02:27:34;;;;;;;13.25;5.18;;;;;;;;;;5051652;28;20495;-78
2022/11/25 02:30:00;;;;;;;8.73;4.40;;;;;;;;;;5056059;28;20070;-78
2022/11/25 02:32:26;;;;;;;13.77;4.72;;;;;;;;;;5082127;28;20048;-78
2022/11/25 02:34:52;;;;;;;12.95;5.10;;;;;;;;;;5083834;28;20048;-78
2022/11/25 02:37:20;;;;;;;10.15;5.07;;;;;;;;;;5046295;28;20110;-78
2022/11/25 02:39:47;;;;;;;16.98;5.88;;;;;;;;;;5070431;28;20397;-78
2022/11/25 02:42:14;;;;;;;11.95;4.72;;;;;;;;;;5053252;28;20376;-78
2022/11/25 02:44:40;;;;;;;10.52;4.97;;;;;;;;;;5081948;28;20101;-78
2022/11/25 02:47:06;;;;;;;13.50;4.55;;;;;;;;;;5065184;28;20399;-77
2022/11/25 02:49:32;;;;;;;13.77;5.20;;;;;;;;;;5082783;28;20055;-78
2022/11/25 02:51:58;;;;;;;11.15;4.53;;;;;;;;;;5062449;28;20047;-78
2022/11/25 02:54:24;;;;;;;15.00;5.07;;;;;;;;;;5066038;28;20403;-78
2022/11/25 02:56:50;;;;;;;12.20;4.97;;;;;;;;;;5048436;28;20045;-78
2022/11/25 02:59:19;;;;;;;12.43;5.00;;;;;;;;;;5053595;28;20048;-78
2022/11/25 03:01:45;;;;;;;13.48;4.70;;;;;;;;;;5070791;28;20063;-78
2022/11/25 03:04:12;;;;;;;12.13;4.13;;;;;;;;;;5079201;28;20371;-78
2022/11/25 03:06:38;;;;;;;8.25;4.13;;;;;;;;;;5084133;28;20435;-78
2022/11/25 03:09:04;;;;;;;13.48;4.72;;;;;;;;;;5053148;28;20048;-78
2022/11/25 03:14:15;;;;;;;11.15;4.28;;;;;;;;;;5062131;28;20084;-78
2022/11/25 03:16:41;;;;;;;9.65;3.80;;;;;;;;;;5070073;28;20056;-78
2022/11/25 03:19:07;;;;;;;9.55;4.10;;;;;;;;;;5070594;28;20040;-78
2022/11/25 03:21:33;;;;;;;10.75;3.78;;;;;;;;;;5083166;28;20078;-78
2022/11/25 03:23:59;;;;;;;8.20;3.80;;;;;;;;;;5083240;28;20048;-78
2022/11/25 03:26:25;;;;;;;15.60;3.90;;;;;;;;;;5048424;28;20487;-78
2022/11/25 03:28:51;;;;;;;10.93;3.83;;;;;;;;;;5048913;28;20075;-78
2022/11/25 03:31:17;;;;;;;9.30;3.75;;;;;;;;;;5077892;28;20048;-78
2022/11/25 03:33:46;;;;;;;9.05;4.38;;;;;;;;;;5049528;28;20472;-78
2022/11/25 03:36:12;;;;;;;8.48;3.70;;;;;;;;;;5074803;28;20075;-78
2022/11/25 03:38:38;;;;;;;13.63;4.22;;;;;;;;;;5049986;28;20110;-78
2022/11/25 03:41:07;;;;;;;10.90;5.03;;;;;;;;;;5062517;28;20124;-78
2022/11/25 03:43:34;;;;;;;10.40;4.20;;;;;;;;;;5050590;28;20036;-78
2022/11/25 03:46:00;;;;;;;12.20;5.38;;;;;;;;;;5085832;28;20063;-76
2022/11/25 03:48:26;;;;;;;12.73;4.95;;;;;;;;;;5083572;28;20079;-76
2022/11/25 03:50:52;;;;;;;8.10;4.50;;;;;;;;;;5069582;28;20075;-76
2022/11/25 03:53:18;;;;;;;13.10;4.60;;;;;;;;;;5066423;28;21198;-76
2022/11/25 03:55:47;;;;;;;15.65;5.65;;;;;;;;;;5057102;28;20123;-76
2022/11/25 03:58:12;;;;;;;13.15;5.30;;;;;;;;;;5076258;28;20048;-76
2022/11/25 04:00:38;;;;;;;11.45;5.25;;;;;;;;;;5061217;28;20126;-75
2022/11/25 04:03:04;;;;;;;10.98;5.38;;;;;;;;;;5089666;28;20147;-75
2022/11/25 04:05:30;;;;;;;14.23;5.38;;;;;;;;;;5090988;28;20044;-76
2022/11/25 04:07:56;;;;;;;14.10;6.25;;;;;;;;;;5053310;28;20053;-76
2022/11/25 04:10:22;;;;;;;12.63;6.13;;;;;;;;;;5076562;28;20391;-76
2022/11/25 04:12:48;;;;;;;15.60;6.68;;;;;;;;;;5093214;28;20047;-76
2022/11/25 04:15:15;;;;;;;14.68;6.90;;;;;;;;;;5055885;28;20082;-76
2022/11/25 04:17:41;;;;;;;15.65;6.80;;;;;;;;;;5090552;28;20071;-76
2022/11/25 04:20:08;;;;;;;12.77;6.13;;;;;;;;;;5089710;28;20093;-76
2022/11/25 04:22:34;;;;;;;15.23;7.50;;;;;;;;;;5084130;28;20036;-76
2022/11/25 04:25:00;;;;;;;15.65;7.55;;;;;;;;;;5071019;28;20118;-76
2022/11/25 04:27:26;;;;;;;16.77;7.50;;;;;;;;;;5058741;28;20048;-76
2022/11/25 04:29:52;;;;;;;16.23;7.53;;;;;;;;;;5061814;28;20503;-75
2022/11/25 04:32:18;;;;;;;14.88;7.82;;;;;;;;;;5074804;28;20040;-76
2022/11/25 04:34:44;;;;;;;15.73;7.10;;;;;;;;;;5077126;28;20066;-76
2022/11/25 04:37:10;;;;;;;13.60;7.22;;;;;;;;;;5086756;28;20055;-76
2022/11/25 04:39:36;;;;;;;14.88;7.57;;;;;;;;;;5072640;28;20412;-76
2022/11/25 04:44:47;;;;;;;15.07;7.30;;;;;;;;;;5066487;28;20102;-76
2022/11/25 04:47:14;;;;;;;14.25;8.38;;;;;;;;;;5068191;28;20071;-76
2022/11/25 04:49:40;;;;;;;14.25;7.18;;;;;;;;;;5076615;28;20080;-76
2022/11/25 04:52:06;;;;;;;16.27;7.53;;;;;;;;;;5061171;28;20471;-76
2022/11/25 04:54:32;;;;;;;17.90;7.75;;;;;;;;;;5085964;28;20048;-75
2022/11/25 04:56:58;;;;;;;20.48;7.88;;;;;;;;;;5048898;28;20037;-76
2022/11/25 04:59:39;;;;;;;18.10;7.43;;;;;;;;;;5051101;28;20037;-76
2022/11/25 05:02:19;;;;;;;16.50;7.63;;;;;;;;;;5057777;28;20056;-76
2022/11/25 05:04:46;;;;;;;13.35;6.75;;;;;;;;;;5079123;28;20149;-76
2022/11/25 05:07:12;;;;;;;14.98;7.43;;;;;;;;;;5052992;28;20542;-76
2022/11/25 05:09:39;;;;;;;15.32;7.22;;;;;;;;;;5072020;28;20074;-75
2022/11/25 05:12:06;;;;;;;21.10;7.55;;;;;;;;;;5055025;28;20484;-76
2022/11/25 05:14:33;;;;;;;10.50;6.70;;;;;;;;;;5053376;28;20128;-76
2022/11/25 05:16:59;;;;;;;17.20;7.30;;;;;;;;;;5053428;28;20049;-75
2022/11/25 05:19:25;;;;;;;17.75;7.45;;;;;;;;;;5052817;28;20063;-76
2022/11/25 05:21:51;;;;;;;17.23;7.35;;;;;;;;;;5055736;28;20036;-76
2022/11/25 05:24:17;;;;;;;12.77;6.90;;;;;;;;;;5056090;28;20049;-76
2022/11/25 05:26:43;;;;;;;14.07;6.80;;;;;;;;;;5055025;28;20052;-75
2022/11/25 05:29:09;;;;;;;12.88;6.72;;;;;;;;;;5048491;28;20477;-76
2022/11/25 05:31:35;;;;;;;14.63;7.00;;;;;;;;;;5086717;28;20048;-76
2022/11/25 05:34:02;;;;;;;14.38;7.00;;;;;;;;;;5070284;28;20036;-75
2022/11/25 05:36:28;;;;;;;18.60;7.93;;;;;;;;;;5058451;28;20053;-75
2022/11/25 05:38:56;;;;;;;14.38;7.07;;;;;;;;;;5084177;28;20124;-76
2022/11/25 05:41:22;;;;;;;16.52;7.82;;;;;;;;;;5071796;28;20041;-75
2022/11/25 05:43:48;;;;;;;12.20;7.22;;;;;;;;;;5088384;28;20048;-75
2022/11/25 05:46:14;;;;;;;16.75;8.50;;;;;;;;;;5072395;28;20048;-76
2022/11/25 05:48:40;;;;;;;15.27;8.82;;;;;;;;;;5070286;28;20103;-76
2022/11/25 05:51:07;;;;;;;19.42;8.38;;;;;;;;;;5074755;28;20047;-76
2022/11/25 05:53:34;;;;;;;15.93;8.90;;;;;;;;;;5067405;28;20040;-75
2022/11/25 05:56:01;;;;;;;25.63;8.98;;;;;;;;;;5064977;28;20513;-76
2022/11/25 05:58:28;;;;;;;16.00;8.35;;;;;;;;;;5071012;28;20096;-76
2022/11/25 06:00:54;;;;;;;16.00;9.40;;;;;;;;;;5082619;28;20055;-75
2022/11/25 06:03:23;;;;;;;18.23;9.00;;;;;;;;;;5070967;28;20381;-76
2022/11/25 06:05:49;;;;;;;15.77;8.00;;;;;;;;;;5049896;28;20127;-76
2022/11/25 06:08:15;;;;;;;15.02;8.38;;;;;;;;;;5064256;28;20115;-76
2022/11/25 06:10:41;;;;;;;19.33;8.75;;;;;;;;;;5061958;28;20106;-76
2022/11/25 06:13:08;;;;;;;17.73;7.72;;;;;;;;;;5042706;28;20554;-76
2022/11/25 06:15:37;;;;;;;23.27;11.60;;;;;;;;;;5053712;28;20147;-75
2022/11/25 06:18:03;;;;;;;18.73;7.72;;;;;;;;;;5070281;28;20496;-75
2022/11/25 06:20:29;;;;;;;14.98;7.82;;;;;;;;;;5084782;28;20048;-76
2022/11/25 06:22:55;;;;;;;15.90;7.40;;;;;;;;;;5055607;28;20060;-76
2022/11/25 06:25:21;;;;;;;16.25;7.63;;;;;;;;;;5084130;28;20106;-76
2022/11/25 06:27:47;;;;;;;18.63;8.07;;;;;;;;;;5047455;28;20049;-75
2022/11/25 06:30:14;;;;;;;17.90;8.00;;;;;;;;;;5064721;28;20044;-76
2022/11/25 06:32:40;;;;;;;20.88;7.82;;;;;;;;;;5071404;28;20041;-76
2022/11/25 06:35:06;;;;;;;18.85;7.93;;;;;;;;;;5053065;28;20044;-76
2022/11/25 06:37:32;;;;;;;17.10;7.57;;;;;;;;;;5051445;28;20044;-76
2022/11/25 06:39:59;;;;;;;16.08;7.53;;;;;;;;;;5085080;28;20492;-76
2022/11/25 06:42:25;;;;;;;14.48;8.40;;;;;;;;;;5065656;28;20752;-76
2022/11/25 06:44:51;;;;;;;24.73;13.63;;;;;;;;;;5066492;28;20080;-76
2022/11/25 06:47:17;;;;;;;13.52;8.30;;;;;;;;;;5049355;28;20047;-76
2022/11/25 06:49:43;;;;;;;20.67;9.18;;;;;;;;;;5082731;28;20496;-76
2022/11/25 06:52:09;;;;;;;21.80;8.95;;;;;;;;;;5048933;28;20047;-76
2022/11/25 06:54:39;;;;;;;18.38;9.20;;;;;;;;;;5058806;28;20041;-76
2022/11/25 06:57:05;;;;;;;14.55;8.30;;;;;;;;;;5080687;28;20512;-76
2022/11/25 06:59:31;;;;;;;16.50;9.00;;;;;;;;;;5084906;28;20393;-75
2022/11/25 07:01:57;;;;;;;17.25;9.02;;;;;;;;;;5082602;28;20048;-76
2022/11/25 07:04:23;;;;;;;18.38;8.57;;;;;;;;;;5066224;28;20039;-76
2022/11/25 07:06:50;;;;;;;14.70;9.05;;;;;;;;;;5079739;28;20044;-76
2022/11/25 07:09:16;;;;;;;16.88;8.48;;;;;;;;;;5084749;28;20036;-76
2022/11/25 07:11:42;;;;;;;19.40;9.18;;;;;;;;;;5078559;28;20539;-76
2022/11/25 07:14:10;;;;;;;18.98;9.20;;;;;;;;;;5050119;28;20052;-76
2022/11/25 07:16:37;;;;;;;17.95;9.35;;;;;;;;;;5059139;28;20028;-75
2022/11/25 07:19:04;;;;;;;19.27;9.20;;;;;;;;;;5078587;28;20043;-75
2022/11/25 07:21:31;;;;;;;21.63;10.35;;;;;;;;;;5082665;28;20044;-75
2022/11/25 07:23:59;;;;;;;17.50;9.77;;;;;;;;;;5071059;28;20032;-75
2022/11/25 07:26:29;;;;;;;17.52;9.68;;;;;;;;;;5064193;28;20384;-75
2022/11/25 07:28:59;;;;;;;13.05;8.35;;;;;;;;;;5065837;28;20060;-75
2022/11/25 07:31:29;;;;;;;15.88;8.85;;;;;;;;;;5041554;28;20037;-75
2022/11/25 07:33:57;;;;;;;17.88;9.35;;;;;;;;;;5061003;28;20071;-75
2022/11/25 07:36:23;;;;;;;18.13;9.00;;;;;;;;;;5070595;28;20047;-75
2022/11/25 07:38:50;;;;;;;20.02;9.95;;;;;;;;;;5053148;28;20064;-75
2022/11/25 07:41:20;;;;;;;14.05;8.70;;;;;;;;;;5069496;28;20043;-75
2022/11/25 07:43:47;;;;;;;16.73;9.13;;;;;;;;;;5087355;28;20044;-75
2022/11/25 07:46:21;;;;;;;16.42;9.07;;;;;;;;;;5071646;28;20048;-76
2022/11/25 07:48:47;;;;;;;16.38;9.18;;;;;;;;;;5084412;28;20052;-75
2022/11/25 07:51:21;;;;;;;17.60;9.10;;;;;;;;;;5050395;28;20207;-75
2022/11/25 07:53:47;;;;;;;14.23;8.40;;;;;;;;;;5033946;28;20040;-75
2022/11/25 07:56:14;;;;;;;17.05;8.82;;;;;;;;;;5033193;28;20083;-75
2022/11/25 07:58:40;;;;;;;16.02;9.00;;;;;;;;;;5039326;28;20037;-75
2022/11/25 08:01:07;;;;;;;14.25;8.02;;;;;;;;;;5085022;28;20036;-75
2022/11/25 08:03:34;;;;;;;18.60;8.15;;;;;;;;;;5052752;28;20048;-75
2022/11/25 08:06:01;;;;;;;13.98;7.88;;;;;;;;;;5087094;28;20556;-75
2022/11/25 08:08:27;;;;;;;17.60;7.47;;;;;;;;;;5085929;28;20079;-75
2022/11/25 08:10:53;;;;;;;14.95;7.53;;;;;;;;;;5070356;28;20048;-75
2022/11/25 08:13:19;;;;;;;16.60;7.40;;;;;;;;;;5087031;28;20043;-75
2022/11/25 08:15:45;;;;;;;10.70;7.13;;;;;;;;;;5086070;28;20059;-75
2022/11/25 08:18:11;;;;;;;11.05;6.45;;;;;;;;;;5052790;28;20098;-75
2022/11/25 08:20:37;;;;;;;12.52;7.05;;;;;;;;;;5082655;28;20127;-75
2022/11/25 08:23:03;;;;;;;11.15;7.13;;;;;;;;;;5083689;28;20045;-74
2022/11/25 08:25:30;;;;;;;12.63;7.10;;;;;;;;;;5086782;28;20037;-75
2022/11/25 08:27:58;;;;;;;14.93;7.63;;;;;;;;;;5082457;28;20060;-75
2022/11/25 08:30:24;;;;;;;12.45;8.10;;;;;;;;;;5063340;28;20131;-75
2022/11/25 08:32:51;;;;;;;11.73;7.25;;;;;;;;;;5072086;28;20098;-75
2022/11/25 08:35:17;;;;;;;13.18;8.20;;;;;;;;;;5066694;28;20040;-75
2022/11/25 08:37:43;;;;;;;11.43;7.35;;;;;;;;;;5069652;28;20523;-75
2022/11/25 08:40:09;;;;;;;9.00;7.35;;;;;;;;;;5086236;28;20505;-75
2022/11/25 08:42:36;;;;;;;15.40;9.13;;;;;;;;;;5074712;28;20048;-75
2022/11/25 08:45:02;;;;;;;12.20;8.13;;;;;;;;;;5090071;28;20091;-75
2022/11/25 08:47:28;;;;;;;17.23;8.07;;;;;;;;;;5073947;28;20036;-75
2022/11/25 08:49:54;;;;;;;13.23;7.63;;;;;;;;;;5056407;28;20055;-75
2022/11/25 08:52:21;;;;;;;14.10;8.13;;;;;;;;;;5074328;28;20037;-75
2022/11/25 08:54:47;;;;;;;14.80;8.82;;;;;;;;;;5056777;28;20051;-75
2022/11/25 08:57:13;;;;;;;16.30;8.20;;;;;;;;;;5055827;28;20037;-75
2022/11/25 08:59:39;;;;;;;14.52;8.10;;;;;;;;;;5086088;28;20041;-75
2022/11/25 09:02:06;;;;;;;13.50;7.63;;;;;;;;;;5074164;28;20399;-75
2022/11/25 09:04:32;;;;;;;12.75;7.53;;;;;;;;;;5072842;28;20047;-75
2022/11/25 09:06:58;;;;;;;15.20;7.35;;;;;;;;;;5074598;28;20123;-74
2022/11/25 09:09:25;;;;;;;10.00;6.85;;;;;;;;;;5073931;28;20083;-75
2022/11/25 09:11:51;;;;;;;12.05;6.82;;;;;;;;;;5055761;28;20048;-75
2022/11/25 09:14:17;;;;;;;13.32;7.40;;;;;;;;;;5088705;28;20047;-75
2022/11/25 09:16:43;;;;;;;15.50;7.30;;;;;;;;;;5074199;28;20442;-75
2022/11/25 09:19:12;;;;;;;10.35;6.05;;;;;;;;;;5072927;28;20056;-75
2022/11/25 09:21:38;;;;;;;12.52;6.57;;;;;;;;;;5055400;28;20122;-75
2022/11/25 09:24:04;;;;;;;11.02;6.38;;;;;;;;;;5054823;28;20487;-75
2022/11/25 09:26:35;;;;;;;8.55;6.47;;;;;;;;;;5088953;28;20083;-75
2022/11/25 09:29:01;;;;;;;12.98;6.53;;;;;;;;;;5073208;28;20526;-75
2022/11/25 09:31:27;;;;;;;11.05;5.60;;;;;;;;;;5068845;28;20559;-75
2022/11/25 09:33:53;;;;;;;14.68;7.22;;;;;;;;;;5086837;28;20123;-75
2022/11/25 09:36:22;;;;;;;12.93;6.70;;;;;;;;;;5090174;28;20055;-75
2022/11/25 09:38:48;;;;;;;10.98;6.25;;;;;;;;;;5074025;28;20052;-75
2022/11/25 09:46:40;;;;;;;12.07;5.93;;;;;;;;;;5054635;28;20519;-75
2022/11/25 09:47:01;;;;;;;9.80;6.55;;;;;;;;;;5072291;28;20431;-75
2022/11/25 09:49:30;;;;;;;10.65;6.50;;;;;;;;;;5072119;28;20039;-75
2022/11/25 09:51:59;;;;;;;9.45;5.93;;;;;;;;;;5055526;28;20072;-75
2022/11/25 09:54:39;;;;;;;10.52;5.82;;;;;;;;;;5060934;28;20032;-75
2022/11/25 09:57:14;;;;;;;12.98;5.65;;;;;;;;;;5035629;28;20079;-75
2022/11/25 09:59:47;;;;;;;12.70;6.25;;;;;;;;;;5051880;28;20040;-75
2022/11/25 10:02:21;;;;;;;15.65;6.22;;;;;;;;;;5088251;28;20082;-75
2022/11/25 10:04:48;;;;;;;10.35;5.38;;;;;;;;;;5071900;28;20079;-75
2022/11/25 10:07:32;;;;;;;11.90;5.20;;;;;;;;;;5035528;28;20234;-75
2022/11/25 10:09:59;;;;;;;12.80;5.50;;;;;;;;;;5052571;28;20049;-75
2022/11/25 10:12:28;;;;;;;14.52;5.28;;;;;;;;;;5039490;28;20075;-75
2022/11/25 10:14:59;;;;;;;10.13;5.63;;;;;;;;;;5086159;28;20040;-75
2022/11/25 10:17:33;;;;;;;10.05;5.10;;;;;;;;;;5072838;28;20484;-75
2022/11/25 10:20:04;;;;;;;10.55;6.18;;;;;;;;;;5087000;28;20392;-75
2022/11/25 10:22:32;;;;;;;10.05;5.30;;;;;;;;;;5071486;28;20040;-75
2022/11/25 10:25:01;;;;;;;13.30;6.25;;;;;;;;;;5072341;28;20122;-75
2022/11/25 10:27:30;;;;;;;13.95;5.70;;;;;;;;;;5072943;28;20044;-75
2022/11/25 10:30:03;;;;;;;10.93;5.63;;;;;;;;;;5087511;28;20131;-75
2022/11/25 10:32:33;;;;;;;10.32;5.28;;;;;;;;;;5040252;28;20507;-75
2022/11/25 10:35:02;;;;;;;9.98;4.88;;;;;;;;;;5068138;28;20088;-74
2022/11/25 10:37:34;;;;;;;13.13;5.07;;;;;;;;;;5071310;28;20040;-75
2022/11/25 10:40:00;;;;;;;12.65;4.95;;;;;;;;;;5062183;28;20132;-75
2022/11/25 10:42:27;;;;;;;15.32;5.75;;;;;;;;;;5034397;28;20532;-75
2022/11/25 10:44:53;;;;;;;14.73;4.80;;;;;;;;;;5051911;28;20127;-75
2022/11/25 10:47:19;;;;;;;14.02;4.60;;;;;;;;;;5062780;28;20072;-75
2022/11/25 10:50:04;;;;;;;14.88;5.25;;;;;;;;;;5072295;28;20473;-75
2022/11/25 10:52:32;;;;;;;13.40;4.60;;;;;;;;;;5054537;28;20052;-75
2022/11/25 10:55:12;;;;;;;9.63;4.00;;;;;;;;;;5054285;28;20040;-75
2022/11/25 10:57:39;;;;;;;11.30;3.53;;;;;;;;;;5085720;28;20055;-75
2022/11/25 11:00:06;;;;;;;9.80;3.92;;;;;;;;;;5084232;28;20044;-75
2022/11/25 11:02:39;;;;;;;12.50;3.83;;;;;;;;;;5070314;28;20127;-75
2022/11/25 11:05:08;;;;;;;9.35;3.58;;;;;;;;;;5069340;28;20044;-75
2022/11/25 11:07:37;;;;;;;13.73;4.50;;;;;;;;;;5083537;28;20048;-75
2022/11/25 11:10:22;;;;;;;11.45;3.97;;;;;;;;;;5084470;28;20044;-75
2022/11/25 11:12:59;;;;;;;13.60;3.80;;;;;;;;;;5072570;28;20054;-75
2022/11/25 11:15:28;;;;;;;10.77;3.95;;;;;;;;;;5052099;28;20382;-75
2022/11/25 11:17:55;;;;;;;17.38;5.00;;;;;;;;;;5051523;28;20400;-75
2022/11/25 11:20:25;;;;;;;17.00;3.75;;;;;;;;;;5078629;28;20396;-75
2022/11/25 11:22:55;;;;;;;11.95;3.85;;;;;;;;;;5071327;28;20048;-75
2022/11/25 11:25:24;;;;;;;13.60;3.90;;;;;;;;;;5087080;28;20395;-75
2022/11/25 11:27:50;;;;;;;15.40;5.13;;;;;;;;;;5087128;28;20159;-75
2022/11/25 11:30:19;;;;;;;15.55;3.78;;;;;;;;;;5053651;28;20127;-74
2022/11/25 11:32:53;;;;;;;15.55;3.95;;;;;;;;;;5035375;28;20052;-75
2022/11/25 11:35:25;;;;;;;14.55;3.88;;;;;;;;;;5054064;28;20056;-75
2022/11/25 11:37:53;;;;;;;14.63;3.83;;;;;;;;;;5083369;28;20094;-75
2022/11/25 11:40:30;;;;;;;16.13;3.78;;;;;;;;;;5085854;28;20053;-75
2022/11/25 11:43:11;;;;;;;19.73;4.45;;;;;;;;;;5053382;28;20090;-74
2022/11/25 11:45:47;;;;;;;17.10;3.83;;;;;;;;;;5069276;28;20503;-75
2022/11/25 11:48:29;;;;;;;13.32;3.38;;;;;;;;;;5070753;28;20499;-75
2022/11/25 11:51:01;;;;;;;17.98;3.88;;;;;;;;;;5067067;28;20048;-74
2022/11/25 11:53:27;;;;;;;15.10;3.33;;;;;;;;;;5050323;28;23590;-74
2022/11/25 11:55:53;;;;;;;15.32;3.55;;;;;;;;;;5071990;28;20052;-75
2022/11/25 11:58:31;;;;;;;13.50;3.47;;;;;;;;;;5066715;28;20040;-75
2022/11/25 12:01:00;;;;;;;14.77;4.40;;;;;;;;;;5045366;28;20514;-75
2022/11/25 12:03:28;;;;;;;14.38;3.90;;;;;;;;;;5084209;28;20492;-75
2022/11/25 12:05:56;;;;;;;10.70;3.20;;;;;;;;;;5045265;28;20123;-75
2022/11/25 12:08:32;;;;;;;13.35;3.63;;;;;;;;;;5069052;28;20142;-75
2022/11/25 12:11:18;;;;;;;13.45;3.90;;;;;;;;;;5069746;28;20063;-74
2022/11/25 12:13:48;;;;;;;15.00;4.07;;;;;;;;;;5060436;28;20543;-74
2022/11/25 12:16:46;;;;;;;16.98;3.83;;;;;;;;;;5045593;28;20107;-75
2022/11/25 12:19:20;;;;;;;10.85;4.07;;;;;;;;;;5046148;28;20392;-75
2022/11/25 12:21:59;;;;;;;11.43;3.25;;;;;;;;;;5091378;28;20123;-74
2022/11/25 12:24:48;;;;;;;17.90;3.83;;;;;;;;;;5064278;28;20051;-74
2022/11/25 12:27:20;;;;;;;14.98;3.80;;;;;;;;;;5073998;28;20089;-74
2022/11/25 12:29:49;;;;;;;11.50;3.70;;;;;;;;;;5080555;28;20040;-74
2022/11/25 12:32:31;;;;;;;15.75;3.53;;;;;;;;;;5065172;28;20127;-74
2022/11/25 12:35:00;;;;;;;14.38;4.00;;;;;;;;;;5050509;28;20052;-75
2022/11/25 12:37:35;;;;;;;16.08;3.83;;;;;;;;;;5051298;28;20488;-74
2022/11/25 12:40:13;;;;;;;13.93;3.40;;;;;;;;;;5075121;28;20482;-75
2022/11/25 12:42:39;;;;;;;12.25;3.33;;;;;;;;;;5080080;28;20048;-75
2022/11/25 12:45:21;;;;;;;13.55;3.78;;;;;;;;;;5064885;28;20495;-75
2022/11/25 12:47:47;;;;;;;10.88;3.15;;;;;;;;;;5067019;28;20495;-75
2022/11/25 12:50:17;;;;;;;12.52;3.78;;;;;;;;;;5081002;28;20051;-74
2022/11/25 12:52:49;;;;;;;10.50;3.20;;;;;;;;;;5050645;28;20051;-74
2022/11/25 12:55:18;;;;;;;12.57;3.35;;;;;;;;;;5050800;28;20130;-75
2022/11/25 12:57:52;;;;;;;15.90;4.85;;;;;;;;;;5063253;28;20040;-74
2022/11/25 13:00:24;;;;;;;9.02;2.97;;;;;;;;;;5070416;28;20043;-75
2022/11/25 13:03:02;;;;;;;12.43;3.60;;;;;;;;;;5058324;28;20481;-74
2022/11/25 13:05:37;;;;;;;14.60;3.33;;;;;;;;;;5036199;28;20103;-74
2022/11/25 13:08:22;;;;;;;12.93;4.00;;;;;;;;;;5072576;28;20079;-74
2022/11/25 13:11:07;;;;;;;10.25;3.35;;;;;;;;;;5085792;28;20128;-73
2022/11/25 13:13:42;;;;;;;12.77;3.40;;;;;;;;;;5086028;28;20105;-74
2022/11/25 13:16:08;;;;;;;15.05;3.75;;;;;;;;;;5088592;28;20075;-74
2022/11/25 13:18:37;;;;;;;11.32;3.63;;;;;;;;;;5076872;28;20048;-75
2022/11/25 13:21:07;;;;;;;11.75;3.30;;;;;;;;;;5089420;28;20387;-74
2022/11/25 13:23:49;;;;;;;7.15;3.38;;;;;;;;;;5069565;28;20052;-75
2022/11/25 13:26:35;;;;;;;12.90;3.42;;;;;;;;;;5073557;28;20052;-75
2022/11/25 13:29:14;;;;;;;14.95;3.83;;;;;;;;;;5068840;28;20040;-75
2022/11/25 13:31:59;;;;;;;13.50;3.28;;;;;;;;;;5049115;28;20095;-75
2022/11/25 13:34:27;;;;;;;9.98;3.60;;;;;;;;;;5087094;28;20537;-75
2022/11/25 13:36:57;;;;;;;11.45;3.67;;;;;;;;;;5072643;28;20395;-75
2022/11/25 13:39:23;;;;;;;14.05;3.78;;;;;;;;;;5067735;28;20048;-75
2022/11/25 13:42:02;;;;;;;12.95;3.35;;;;;;;;;;5089425;28;20044;-75
2022/11/25 13:44:34;;;;;;;12.85;3.50;;;;;;;;;;5054842;28;20051;-75
2022/11/25 13:47:20;;;;;;;11.70;3.47;;;;;;;;;;5068470;28;20126;-75
2022/11/25 13:49:49;;;;;;;13.35;3.50;;;;;;;;;;5076037;28;20044;-74
2022/11/25 13:52:15;;;;;;;11.50;3.70;;;;;;;;;;5069337;28;20036;-75
2022/11/25 13:54:55;;;;;;;13.73;4.15;;;;;;;;;;5068533;28;20047;-75
2022/11/25 13:57:24;;;;;;;11.85;3.95;;;;;;;;;;5071713;28;20040;-75
2022/11/25 14:00:01;;;;;;;12.85;3.67;;;;;;;;;;5057736;28;20044;-75
2022/11/25 14:02:27;;;;;;;14.65;3.63;;;;;;;;;;5088244;28;20044;-75
2022/11/25 14:05:12;;;;;;;12.63;3.20;;;;;;;;;;5051128;28;20101;-75
2022/11/25 14:07:41;;;;;;;10.65;3.50;;;;;;;;;;5071423;28;20036;-74
2022/11/25 14:10:15;;;;;;;9.40;3.22;;;;;;;;;;5050780;28;20067;-75
2022/11/25 14:12:46;;;;;;;11.40;4.10;;;;;;;;;;5049261;28;20052;-75
2022/11/25 14:15:18;;;;;;;10.73;3.53;;;;;;;;;;5086910;28;20048;-75
2022/11/25 14:18:00;;;;;;;12.80;3.90;;;;;;;;;;5071892;28;20040;-75
2022/11/25 14:20:45;;;;;;;14.45;3.47;;;;;;;;;;5067519;28;20040;-75
2022/11/25 14:23:29;;;;;;;12.40;3.33;;;;;;;;;;5084311;28;20046;-75
2022/11/25 14:25:57;;;;;;;11.52;3.58;;;;;;;;;;5058981;28;20094;-75
2022/11/25 14:28:26;;;;;;;18.70;4.10;;;;;;;;;;5059764;28;20040;-75
2022/11/25 14:30:54;;;;;;;12.95;3.53;;;;;;;;;;5085325;28;20553;-74
2022/11/25 14:33:26;;;;;;;15.27;3.72;;;;;;;;;;5066167;28;20090;-75
2022/11/25 14:35:55;;;;;;;12.20;3.05;;;;;;;;;;5087929;28;20036;-75
2022/11/25 14:38:27;;;;;;;14.68;3.85;;;;;;;;;;5052320;28;20392;-75
2022/11/25 14:40:58;;;;;;;13.77;3.55;;;;;;;;;;5064696;28;20139;-74
2022/11/25 14:43:25;;;;;;;11.80;3.63;;;;;;;;;;5063274;28;20093;-75
2022/11/25 14:46:10;;;;;;;11.20;3.83;;;;;;;;;;5093405;28;20044;-75
2022/11/25 14:48:36;;;;;;;15.95;4.03;;;;;;;;;;5090841;28;20433;-75
2022/11/25 14:51:06;;;;;;;12.90;3.90;;;;;;;;;;5068797;28;20471;-75
2022/11/25 14:53:37;;;;;;;14.63;4.43;;;;;;;;;;5062535;28;20044;-75
2022/11/25 14:56:03;;;;;;;11.82;4.50;;;;;;;;;;5083370;28;20059;-74